Atlanta, Indiana
Current Conditions -  °F | °C
As of 1:15 AM on Wednesday 26 Nov 2014 (Local Time) from KTYQ Reporting Station
Overcast Overcast  
Wind Chill: 21°   Ceiling: 1000
Heat Index: 26°   Visibility: 10mi
Dew Point: 21°   Wind: 5mph
Humidity: 80%   Direction: 320°NW
Pressure: 30.17"   Gusts: NA
Location:  40.22°N, 86.03°W
Report Text: KTYQ 260615Z AUTO 32004KT 10SM OVC010 M03/M06 A3017 RMK AO2 T10331063
Loading
Personal Weather Stations






























Interactive Weather Map New forecast layout! Learn more

10-Day Weather Forecast

Advertisements
Track Severe Weather on mobile